In Rescue
 
Open Full Screen Window  High Contrast Mode
Wind Gusting 00 knots
03
January 17, 2021 2:38 PM EST
Weather Information
Wind Direction
  260 °
Wind Speed
  03 kt (3 mph)
Wind Gust
  00 kt (0 mph)
Altimeter
29.62 in
Visibility
10 SM
Temperature
02° C
36° F
Dewpoint
-01° C
30° F
Humidity
81%
Sky Condition
Overcast @ 2,900 ft
Scattered @ 2,200 ft
MVFR

METAR KPHN 171938Z AUTO 26003KT 10SM SCT022 OVC029 02/M01 A2962 RMK AO2

FAA Disclaimer: The data displayed is for advisory purposes only and is not to be used for flight planning or operations.